Home > Products > Valid Products > TAF

000
FTUS44 KTSA 281700
TAFMLC
TAF
KMLC 281735Z 2818/2918 04006KT P6SM SCT130 BKN200
     FM282200 01010KT P6SM BKN130 BKN200
     FM290300 00000KT P6SM BKN120 BKN200=



000
FTUS44 KTSA 281700
TAFFYV
TAF
KFYV 281735Z 2818/2918 34007KT P6SM SCT250
     FM290200 00000KT P6SM SCT250=



000
FTUS44 KTSA 281700
TAFTUL
TAF
KTUL 281735Z 2818/2918 03007KT P6SM SCT120 SCT250
     FM282100 36009KT P6SM SCT120 SCT250
     FM290600 02002KT P6SM SCT150 SCT250=



000
FTUS44 KTSA 281700
TAFXNA
TAF
KXNA 281735Z 2818/2918 36009KT P6SM SCT250
     FM290200 VRB03KT P6SM SCT250=



000
FTUS44 KTSA 281700
TAFFSM
TAF
KFSM 281735Z 2818/2918 35008KT P6SM SCT150 SCT250
     FM290300 01003KT P6SM SCT250
     FM291500 08006KT P6SM SCT140 SCT250=



000
FTUS44 KTSA 281700
TAFRVS
TAF
KRVS 281735Z 2818/2918 03006KT P6SM SCT120 SCT250
     FM282100 36009KT P6SM SCT110 SCT250
     FM290300 00000KT P6SM SCT140 SCT250=



000
FTUS44 KTSA 281100
TAFRVS
TAF
KRVS 281120Z 2812/2912 03007KT P6SM FEW120 SCT250
     FM290100 03003KT P6SM FEW250=



000
FTUS44 KTSA 281100
TAFFSM
TAF
KFSM 281120Z 2812/2912 36005KT P6SM SCT120 SCT250
     FM281700 35011KT P6SM FEW250
     FM290200 03005KT P6SM SKC=



000
FTUS44 KTSA 281100
TAFTUL
TAF
KTUL 281120Z 2812/2912 03007KT P6SM FEW120 SCT250
     FM290200 03003KT P6SM FEW250=



000
FTUS44 KTSA 281100
TAFXNA
TAF
KXNA 281120Z 2812/2912 01004KT P6SM FEW250
     FM281500 36010KT P6SM FEW250
     FM290100 01004KT P6SM SKC=



000
FTUS44 KTSA 281100
TAFMLC
TAF
KMLC 281120Z 2812/2912 02007KT P6SM SCT120 SCT250
     FM290200 03003KT P6SM FEW250=



000
FTUS44 KTSA 281100
TAFFYV
TAF
KFYV 281120Z 2812/2912 VRB03KT P6SM FEW250
     FM281500 36008KT P6SM FEW250
     FM290100 VRB03KT P6SM SKC=



000
FTUS44 KTSA 280500
TAFFSM
TAF
KFSM 280520Z 2806/2906 34009KT P6SM SCT120
     FM281500 35011KT P6SM FEW250
     FM290200 35004KT P6SM SKC=



000
FTUS44 KTSA 280500
TAFRVS
TAF
KRVS 280520Z 2806/2906 00000KT P6SM SCT120
     FM281500 03009KT P6SM FEW250
     FM290200 03002KT P6SM SKC=



000
FTUS44 KTSA 280500
TAFXNA
TAF
KXNA 280520Z 2806/2906 30005KT P6SM SCT120
     FM281500 36010KT P6SM FEW250
     FM290200 36004KT P6SM SKC=



000
FTUS44 KTSA 280500
TAFMLC
TAF
KMLC 280520Z 2806/2906 00000KT P6SM SCT250
     FM281500 03010KT P6SM FEW250
     FM290200 03004KT P6SM SKC=



000
FTUS44 KTSA 280500
TAFTUL
TAF
KTUL 280520Z 2806/2906 00000KT P6SM SCT120
     FM281500 03010KT P6SM FEW250
     FM290200 03003KT P6SM SKC=



000
FTUS44 KTSA 280500
TAFFYV
TAF
KFYV 280520Z 2806/2906 00000KT P6SM SCT120
     FM281500 01008KT P6SM FEW250
     FM290200 02003KT P6SM SKC=



000
FTUS44 KTSA 272300
TAFMLC
TAF
KMLC 272324Z 2800/2824 02009KT P6SM FEW050 BKN250
     FM280600 02006KT P6SM BKN120
     FM281500 03010KT P6SM SCT120=



000
FTUS44 KTSA 272300
TAFRVS
TAF
KRVS 272324Z 2800/2824 04012KT P6SM FEW070 BKN110
     FM280600 03006KT P6SM SCT120
     FM281500 03010KT P6SM FEW250=



000
FTUS44 KTSA 272300
TAFFYV
TAF
KFYV 272324Z 2800/2824 01007G15KT P6SM BKN250
     FM280600 34003KT P6SM SCT250
     FM281500 01008KT P6SM FEW250=



000
FTUS44 KTSA 272300
TAFXNA
TAF
KXNA 272324Z 2800/2824 36012KT P6SM BKN250
     FM280500 34005KT P6SM SCT250
     FM281500 36011KT P6SM FEW250=



000
FTUS44 KTSA 272300
TAFFSM
TAF
KFSM 272324Z 2800/2824 33009KT P6SM FEW060 BKN250
     FM280600 36006KT P6SM SCT120 BKN250
     FM281500 35011KT P6SM SCT250=



000
FTUS44 KTSA 272300
TAFTUL
TAF
KTUL 272324Z 2800/2824 05008KT P6SM FEW070 BKN110
     FM280600 03008KT P6SM SCT120
     FM281500 04010KT P6SM FEW250
     FM281800 02014KT P6SM FEW250=



000
FTUS44 KTSA 271700
TAFFYV
TAF
KFYV 271731Z 2718/2818 30010KT P6SM SCT120 BKN250
     FM280100 34003KT P6SM BKN120
     FM281500 02006KT P6SM SKC=



000
FTUS44 KTSA 271700
TAFTUL
TAF
KTUL 271731Z 2718/2818 36011KT P6SM BKN150 BKN250
     FM280600 04008KT P6SM BKN120
     FM281500 03009KT P6SM SKC=



000
FTUS44 KTSA 271700
TAFRVS
TAF
KRVS 271731Z 2718/2818 02009KT P6SM BKN150 BKN250
     FM280600 04006KT P6SM BKN120
     FM281500 03007KT P6SM SKC=



000
FTUS44 KTSA 271700
TAFFSM
TAF
KFSM 271731Z 2718/2818 29010KT P6SM SCT120 SCT250
     FM280200 36006KT P6SM BKN120
     FM281500 03008KT P6SM SCT120=



000
FTUS44 KTSA 271700
TAFMLC
TAF
KMLC 271731Z 2718/2818 24009KT P6SM SCT150
     FM272300 34009KT P6SM SCT060 BKN120
     FM281200 03006KT P6SM BKN120=



000
FTUS44 KTSA 271700
TAFXNA
TAF
KXNA 271731Z 2718/2818 31009KT P6SM SCT120 BKN250
     FM280500 34005KT P6SM BKN120
     FM281500 36010KT P6SM SKC=



000
FTUS44 KTSA 271100
TAFRVS
TAF
KRVS 271127Z 2712/2812 20005KT P6SM SCT250
     FM271600 36006KT P6SM VCTS SCT050CB BKN150
     FM272200 03006KT P6SM SCT150=



000
FTUS44 KTSA 271100
TAFXNA
TAF
KXNA 271127Z 2712/2812 22007KT P6SM SCT250
     FM271600 27010KT P6SM SCT050 BKN250
     FM271900 33008KT P6SM VCTS SCT050CB BKN150
     FM280000 36004KT P6SM BKN250=



000
FTUS44 KTSA 271100
TAFTUL
TAF
KTUL 271127Z 2712/2812 20007KT P6SM SCT250
     FM271600 36006KT P6SM VCTS SCT050CB BKN150
     FM272200 03006KT P6SM SCT150=



000
FTUS44 KTSA 271100
TAFMLC
TAF
KMLC 271127Z 2712/2812 19005KT P6SM FEW250
     FM271500 22008KT P6SM SCT250
     FM272100 35005KT P6SM VCTS SCT050CB BKN150 PROB30 2723/2804 5SM
      TSRA BKN040CB
     FM280400 03005KT P6SM BKN250=



000
FTUS44 KTSA 271100
TAFFYV
TAF
KFYV 271127Z 2712/2812 22008KT P6SM SCT250
     FM271600 27010KT P6SM SCT050 BKN250
     FM271900 33008KT P6SM VCTS SCT050CB BKN150
     FM280000 36004KT P6SM BKN250=



000
FTUS44 KTSA 271100
TAFFSM
TAF
KFSM 271127Z 2712/2812 VRB03KT P6SM FEW250
     FM271600 27008KT P6SM SCT050 SCT250
     FM272100 31008KT P6SM VCTS SCT050CB BKN150 PROB30 2722/2803 5SM
      TSRA BKN040CB
     FM280300 01007KT P6SM BKN250=



000
FTUS44 KTSA 270500
TAFFYV
TAF
KFYV 270520Z 2706/2806 00000KT P6SM SCT250
     FM271500 23010KT P6SM BKN250
     FM271900 29010KT P6SM BKN100 PROB30 2720/2724 3SM TSRA BKN040CB
     FM280000 35004KT P6SM BKN150=



000
FTUS44 KTSA 270500
TAFRVS
TAF
KRVS 270520Z 2706/2806 19006KT P6SM SCT250
     FM270900 19006KT P6SM SCT250
     FM271600 33006KT P6SM BKN100 PROB30 2718/2724 3SM TSRA BKN040CB
     FM280000 04004KT P6SM BKN100=



000
FTUS44 KTSA 270500
TAFFSM
TAF
KFSM 270520Z 2706/2806 16003KT P6SM SCT250
     FM271500 26008KT P6SM SCT150 PROB30 2722/2802 3SM TSRA BKN040CB
     FM280200 34005KT P6SM BKN150=



000
FTUS44 KTSA 270500
TAFTUL
TAF
KTUL 270520Z 2706/2806 18015KT P6SM SCT250
     FM270900 19007KT P6SM SCT250
     FM271600 33006KT P6SM BKN100 PROB30 2718/2724 3SM TSRA BKN040CB
     FM280000 03006KT P6SM BKN100=



000
FTUS44 KTSA 270500
TAFXNA
TAF
KXNA 270520Z 2706/2806 20006KT P6SM SCT250
     FM271500 23010KT P6SM BKN250
     FM271900 29010KT P6SM BKN100 PROB30 2720/2724 3SM TSRA BKN040CB
     FM280000 35004KT P6SM BKN150=



000
FTUS44 KTSA 270500
TAFMLC
TAF
KMLC 270520Z 2706/2806 18005KT P6SM SCT250
     FM270900 19005KT P6SM SCT250
     FM271500 22011KT P6SM SCT250
     FM272200 VRB05KT P6SM BKN150 PROB30 2722/2803 3SM TSRA
      BKN040CB=



000
FTUS44 KTSA 262300
TAFXNA
TAF
KXNA 262320Z 2700/2724 20011KT P6SM FEW250
     FM270600 19006KT P6SM SCT250
     FM271500 23010KT P6SM BKN250
     FM271900 29010KT P6SM BKN100 PROB30 2719/2723 3SM TSRA
      BKN040CB=



000
FTUS44 KTSA 262300
TAFFSM
TAF
KFSM 262320Z 2700/2724 19008KT P6SM FEW250
     FM270300 VRB03KT P6SM SCT250
     FM271500 26008KT P6SM SCT150 PROB30 2722/2724 3SM TSRA
      BKN040CB=



000
FTUS44 KTSA 262300
TAFRVS
TAF
KRVS 262320Z 2700/2724 18011G20KT P6SM SCT250
     FM270900 19006KT P6SM SCT250
     FM271600 33006KT P6SM BKN100 PROB30 2718/2723 3SM TSRA
      BKN040CB=



000
FTUS44 KTSA 262300
TAFMLC
TAF
KMLC 262320Z 2700/2724 19006KT P6SM FEW250
     FM270900 19005KT P6SM SCT250
     FM271500 22011KT P6SM SCT250
     FM272200 VRB05KT P6SM BKN150=



000
FTUS44 KTSA 262300
TAFFYV
TAF
KFYV 262320Z 2700/2724 19012KT P6SM FEW250
     FM270600 19006KT P6SM SCT250
     FM271500 23010KT P6SM BKN250
     FM271900 29010KT P6SM BKN100 PROB30 2719/2723 3SM TSRA
      BKN040CB=



000
FTUS44 KTSA 262300
TAFTUL
TAF
KTUL 262320Z 2700/2724 20014G20KT P6SM SCT250
     FM270900 19007KT P6SM SCT250
     FM271600 33006KT P6SM BKN100 PROB30 2718/2723 3SM TSRA
      BKN040CB=



000
FTUS44 KTSA 261700
TAFTUL
TAF
KTUL 261737Z 2618/2718 20014KT P6SM SCT150 BKN250
     FM270400 16013KT P6SM BKN150
     FM271600 33006KT P6SM OVC100 PROB30 2716/2718 3SM TSRA BKN040CB
      OVC100=



000
FTUS44 KTSA 261700
TAFXNA
TAF
KXNA 261737Z 2618/2718 21013G19KT P6SM SCT250
     FM270200 19008KT P6SM BKN200
     FM271400 24011KT P6SM BKN130=



000
FTUS44 KTSA 261700
TAFRVS
TAF
KRVS 261737Z 2618/2718 20012KT P6SM SCT150 BKN250
     FM270400 16010KT P6SM BKN150
     FM271600 33006KT P6SM OVC100 PROB30 2716/2718 3SM TSRA BKN040CB
      OVC100=



000
FTUS44 KTSA 261700
TAFFYV
TAF
KFYV 261737Z 2618/2718 21012KT P6SM SCT250
     FM270200 19006KT P6SM BKN200
     FM271500 23010KT P6SM BKN130=



000
FTUS44 KTSA 261700
TAFMLC
TAF
KMLC 261737Z 2618/2718 20010KT P6SM SCT150
     FM270900 19005KT P6SM BKN150
     FM271500 22011KT P6SM BKN130=



000
FTUS44 KTSA 261700
TAFFSM
TAF
KFSM 261737Z 2618/2718 27010KT P6SM SCT250
     FM270300 VRB03KT P6SM BKN200
     FM271500 26008KT P6SM BKN130=



000
FTUS44 KTSA 261300 AAA
TAFFSM
TAF AMD
KFSM 261303Z 2613/2712 09004KT 1 1/2SM BR SKC
      TEMPO 2613/2614 5SM BR
     FM261400 21010KT P6SM FEW050
     FM270200 VRB03KT P6SM SCT250=



000
FTUS44 KTSA 261100
TAFFYV
TAF
KFYV 261127Z 2612/2712 18005KT P6SM FEW250
     FM261500 21014KT P6SM FEW040 SCT250
     FM270100 18007KT P6SM SCT250=



000
FTUS44 KTSA 261100
TAFFSM
TAF
KFSM 261127Z 2612/2712 05004KT P6SM FEW250
      TEMPO 2612/2614 3SM BR
     FM261600 21010KT P6SM FEW050
     FM270200 VRB03KT P6SM SCT250=



000
FTUS44 KTSA 261100
TAFXNA
TAF
KXNA 261127Z 2612/2712 19005KT P6SM FEW250
      TEMPO 2612/2613 4SM BR
     FM261500 21014KT P6SM FEW040 SCT250
     FM270100 19007KT P6SM SCT250=



000
FTUS44 KTSA 261100
TAFMLC
TAF
KMLC 261127Z 2612/2712 19007KT P6SM FEW250
     FM261500 21012KT P6SM FEW050
     FM270100 18006KT P6SM SCT250=



000
FTUS44 KTSA 261100
TAFTUL
TAF
KTUL 261127Z 2612/2712 18010KT P6SM FEW250
     FM261600 20015G25KT P6SM FEW050 SCT250
     FM270200 18010KT P6SM SCT150=



000
FTUS44 KTSA 261100
TAFRVS
TAF
KRVS 261127Z 2612/2712 19006KT P6SM FEW250
     FM261600 20014G22KT P6SM FEW050 SCT250
     FM270100 19007KT P6SM SCT150=



000
FTUS44 KTSA 260800 AAA
TAFXNA
TAF AMD
KXNA 260801Z 2608/2706 20005KT P6SM SKC
      TEMPO 2608/2612 3SM BR
     FM261600 21014KT P6SM SCT250
     FM270200 19009KT P6SM SCT250=



000
FTUS44 KTSA 260800 AAA
TAFFSM
TAF AMD
KFSM 260800Z 2608/2706 08003KT 3SM BR SKC
     FM261300 23008KT P6SM SKC
     FM261800 21012KT P6SM SKC
     FM270200 21005KT P6SM SCT250=



000
FTUS44 KTSA 260500
TAFTUL
TAF
KTUL 260520Z 2606/2706 17010KT P6SM SKC
     FM261500 21015KT P6SM SCT250
     FM261800 20015G26KT P6SM SCT150
     FM270200 19015KT P6SM SCT150=



000
FTUS44 KTSA 260500
TAFFSM
TAF
KFSM 260520Z 2606/2706 08003KT P6SM SKC
     FM261500 23008KT P6SM SKC
     FM261800 21012KT P6SM SKC
     FM270200 21005KT P6SM SCT250=



000
FTUS44 KTSA 260500
TAFXNA
TAF
KXNA 260520Z 2606/2706 20005KT P6SM SKC
     FM261600 21014KT P6SM SCT250
     FM270200 19009KT P6SM SCT250=



000
FTUS44 KTSA 260500
TAFRVS
TAF
KRVS 260520Z 2606/2706 17006KT P6SM SKC
     FM261500 21012KT P6SM SCT250
     FM261800 20014G24KT P6SM SCT150
     FM270200 19007KT P6SM SCT150=



000
FTUS44 KTSA 260500
TAFMLC
TAF
KMLC 260520Z 2606/2706 17007KT P6SM SKC
     FM261500 21012KT P6SM SKC
     FM270200 19006KT P6SM SCT250=



000
FTUS44 KTSA 260500
TAFFYV
TAF
KFYV 260520Z 2606/2706 23005KT P6SM SKC
     FM261600 21014KT P6SM SCT250
     FM270200 19008KT P6SM SCT250=



000
FTUS44 KTSA 252300
TAFMLC
TAF
KMLC 252320Z 2600/2624 19008G15KT P6SM SKC
     FM260600 18006KT P6SM SKC
     FM261500 21012KT P6SM SKC=



000
FTUS44 KTSA 252300
TAFRVS
TAF
KRVS 252320Z 2600/2624 18016G20KT P6SM SKC
     FM260100 19007KT P6SM SKC
     FM261500 21012KT P6SM SCT250
     FM261800 20014G24KT P6SM SCT150=



000
FTUS44 KTSA 252300
TAFXNA
TAF
KXNA 252320Z 2600/2624 17012KT P6SM SKC
     FM260300 18006KT P6SM SKC
     FM261500 21014KT P6SM SKC
     FM262000 20015KT P6SM SCT250=



000
FTUS44 KTSA 252300
TAFFSM
TAF
KFSM 252320Z 2600/2624 16004KT P6SM SKC
     FM260500 08004KT P6SM SKC
     FM261500 23008KT P6SM SKC
     FM261800 21012KT P6SM SKC=



000
FTUS44 KTSA 252300
TAFFYV
TAF
KFYV 252320Z 2600/2624 18008G17KT P6SM SKC
     FM260300 18005KT P6SM SKC
     FM261500 21014KT P6SM SKC
     FM262000 20015KT P6SM SCT250=



000
FTUS44 KTSA 252300
TAFTUL
TAF
KTUL 252320Z 2600/2624 18015G22KT P6SM SKC
     FM260200 19014KT P6SM SKC
     FM261500 21015KT P6SM SCT250
     FM261800 20015G26KT P6SM SCT150=



    US Dept of Commerce
    National Oceanic and Atmospheric Administration
    National Weather Service
    1325 East West Highway
    Silver Spring, MD 20910
    Page Author: NWS Internet Services Team
Disclaimer
Information Quality
Credits
Glossary
Privacy Policy
Freedom of Information Act (FOIA)
About Us
Career Opportunities